Terminal Aerodrome Forecast
Issued by NWS

Home | Current Version | Previous Version | Graphics & Text | Print | Product List | Glossary On
Versions: 1 2 3 4 5 6 7 8 9 10 11 12 13 14 15 16 17 18 19 20 21 22 23
209
FTUS41 KCLE 230947 AAA
TAFFDY
TAF AMD
KFDY 230947Z 2310/2406 04010KT 3/4SM BR OVC002
     FM231200 04010KT 3SM BR VCSH OVC004
     FM231600 03008KT 5SM -RA BR OVC006
     FM232100 03005KT 5SM BR OVC010=

USA.gov is the U.S. government's official web portal to all federal, state and local government web resources and services.